Time;durP1;ratioP1;P1;durP2;ratioP2;P2;SDS_P1;SDS_P2;PMS_P1;PMS_P2;Temp;Humidity;BMP_temperature;BMP_pressure;BME280_temperature;BME280_humidity;BME280_pressure;Samples;Min_cycle;Max_cycle;Signal;HPM_P1;HPM_P2
2022/09/27 00:02:13;;;;;;;11.35;1.90;;;10.90;99.90;;;;;;5134673;27;20034;-90
2022/09/27 00:04:38;;;;;;;8.23;1.70;;;10.90;99.90;;;;;;5134881;27;20095;-90
2022/09/27 00:07:04;;;;;;;9.43;1.55;;;10.90;99.90;;;;;;5134875;27;20045;-90
2022/09/27 00:09:30;;;;;;;9.20;1.70;;;10.90;99.90;;;;;;5108073;27;20033;-90
2022/09/27 00:11:56;;;;;;;8.63;1.30;;;10.90;99.90;;;;;;5114023;28;20514;-90
2022/09/27 00:14:21;;;;;;;12.80;1.92;;;10.80;99.90;;;;;;5114349;28;20039;-90
2022/09/27 00:16:47;;;;;;;6.32;1.58;;;10.80;99.90;;;;;;5113999;28;20567;-90
2022/09/27 00:19:18;;;;;;;5.43;1.25;;;10.80;99.90;;;;;;5114260;28;20528;-90
2022/09/27 00:21:45;;;;;;;11.57;1.70;;;10.80;99.90;;;;;;5114195;28;20397;-90
2022/09/27 00:24:16;;;;;;;11.18;1.58;;;10.80;99.90;;;;;;5113854;28;20146;-89
2022/09/27 00:26:42;;;;;;;9.20;1.30;;;10.80;99.90;;;;;;5099796;27;20077;-90
2022/09/27 00:29:09;;;;;;;9.15;1.33;;;10.80;99.90;;;;;;5101198;27;20077;-90
2022/09/27 00:31:36;;;;;;;8.20;1.17;;;10.70;99.90;;;;;;5117810;27;20043;-90
2022/09/27 00:34:04;;;;;;;9.52;1.45;;;10.70;99.90;;;;;;5118602;27;20122;-90
2022/09/27 00:36:30;;;;;;;11.88;1.80;;;10.70;99.90;;;;;;5101489;27;20510;-90
2022/09/27 00:38:58;;;;;;;7.57;1.10;;;10.60;99.90;;;;;;5100434;27;20039;-89
2022/09/27 00:41:33;;;;;;;4.43;1.00;;;10.60;99.90;;;;;;5117935;27;20043;-90
2022/09/27 00:44:03;;;;;;;7.97;1.13;;;10.50;99.90;;;;;;5118463;27;20123;-90
2022/09/27 00:46:39;;;;;;;4.90;1.27;;;10.50;99.90;;;;;;5117817;27;20058;-90
2022/09/27 00:49:22;;;;;;;4.20;0.90;;;10.40;99.90;;;;;;5118488;27;20500;-90
2022/09/27 00:51:51;;;;;;;9.70;1.55;;;10.40;99.90;;;;;;5117702;27;20054;-90
2022/09/27 00:54:18;;;;;;;6.45;1.20;;;10.40;99.90;;;;;;5117570;27;20125;-90
2022/09/27 00:56:45;;;;;;;7.70;1.35;;;10.30;99.90;;;;;;5118290;27;20172;-90
2022/09/27 00:59:16;;;;;;;3.75;0.90;;;10.30;99.90;;;;;;5100571;27;20074;-90
2022/09/27 01:01:42;;;;;;;6.90;1.05;;;10.20;99.90;;;;;;5117350;27;20031;-90
2022/09/27 01:04:13;;;;;;;6.53;1.00;;;10.30;99.90;;;;;;5117963;27;20588;-90
2022/09/27 01:06:39;;;;;;;8.10;0.90;;;10.20;99.90;;;;;;5117862;27;20071;-90
2022/09/27 01:09:07;;;;;;;4.97;0.73;;;10.20;99.90;;;;;;5100450;27;20050;-90
2022/09/27 01:12:10;;;;;;;4.82;1.10;;;10.20;99.90;;;;;;5117382;27;20043;-90
2022/09/27 01:14:57;;;;;;;3.90;0.80;;;10.20;99.90;;;;;;5100731;27;20036;-90
2022/09/27 01:17:26;;;;;;;8.07;0.80;;;10.10;99.90;;;;;;5117099;27;20084;-89
2022/09/27 01:20:10;;;;;;;7.10;1.00;;;10.10;99.90;;;;;;5117676;27;20088;-90
2022/09/27 01:23:03;;;;;;;5.60;0.95;;;10.10;99.90;;;;;;5099650;27;20088;-90
2022/09/27 01:26:05;;;;;;;7.47;1.10;;;10.10;99.90;;;;;;5117257;27;20134;-90
2022/09/27 01:29:02;;;;;;;8.55;1.30;;;10.10;99.90;;;;;;5117270;27;20556;-90
2022/09/27 01:31:43;;;;;;;4.95;0.85;;;10.10;99.90;;;;;;5116752;27;20077;-90
2022/09/27 01:34:32;;;;;;;7.57;1.13;;;10.00;99.90;;;;;;5117141;27;20039;-90
2022/09/27 01:37:22;;;;;;;4.40;0.80;;;10.00;99.90;;;;;;5117264;27;20035;-90
2022/09/27 01:40:04;;;;;;;8.35;0.98;;;10.00;99.90;;;;;;5116704;27;20046;-89
2022/09/27 01:42:42;;;;;;;2.25;0.68;;;10.00;99.90;;;;;;5099955;27;20031;-89
2022/09/27 01:45:18;;;;;;;6.03;0.90;;;10.00;99.90;;;;;;5116824;27;20047;-89
2022/09/27 01:47:48;;;;;;;4.63;0.93;;;10.00;99.90;;;;;;5116503;27;20077;-89
2022/09/27 01:50:20;;;;;;;5.78;0.77;;;10.00;99.90;;;;;;5099777;27;20031;-89
2022/09/27 01:52:55;;;;;;;6.80;1.23;;;10.00;99.90;;;;;;5116882;27;20046;-89
2022/09/27 01:55:27;;;;;;;6.70;0.80;;;10.00;99.90;;;;;;5116476;27;20035;-89
2022/09/27 01:58:01;;;;;;;6.50;1.00;;;10.00;99.90;;;;;;5099716;27;20035;-89
2022/09/27 02:00:28;;;;;;;4.90;0.90;;;10.00;99.90;;;;;;5099547;27;20385;-89
2022/09/27 02:02:56;;;;;;;2.72;0.45;;;10.10;99.90;;;;;;5116736;27;20031;-89
2022/09/27 02:05:28;;;;;;;3.42;0.70;;;10.10;99.90;;;;;;5116749;27;20043;-88
2022/09/27 02:08:01;;;;;;;7.35;0.90;;;10.10;99.90;;;;;;5099132;27;20116;-89
2022/09/27 02:10:34;;;;;;;4.18;0.77;;;10.10;99.90;;;;;;5116554;27;20035;-89
2022/09/27 02:13:09;;;;;;;6.35;0.90;;;10.10;99.90;;;;;;5099159;27;20077;-89
2022/09/27 02:16:02;;;;;;;3.88;1.13;;;10.10;99.90;;;;;;5116118;27;20087;-89
2022/09/27 02:18:35;;;;;;;6.15;1.27;;;10.10;99.90;;;;;;5115844;27;20035;-89
2022/09/27 02:21:04;;;;;;;2.05;0.60;;;10.10;99.90;;;;;;5115924;27;20039;-88
2022/09/27 02:23:32;;;;;;;5.47;0.55;;;10.00;99.90;;;;;;5115795;27;20038;-88
2022/09/27 02:26:03;;;;;;;2.05;0.60;;;10.00;99.90;;;;;;5116179;27;20042;-89
2022/09/27 02:28:48;;;;;;;5.53;0.80;;;10.00;99.90;;;;;;5116043;27;20039;-88
2022/09/27 02:31:14;;;;;;;2.75;0.65;;;10.00;99.90;;;;;;5115487;27;20400;-89
2022/09/27 02:33:43;;;;;;;4.22;0.60;;;10.00;99.90;;;;;;5116013;27;20039;-89
2022/09/27 02:36:10;;;;;;;3.10;0.90;;;10.00;99.90;;;;;;5115876;27;20038;-88
2022/09/27 02:38:36;;;;;;;3.40;0.55;;;10.00;99.90;;;;;;5115593;27;20562;-89
2022/09/27 02:41:01;;;;;;;9.02;1.13;;;10.00;99.90;;;;;;5115459;27;20082;-89
2022/09/27 02:43:31;;;;;;;4.70;0.80;;;10.00;99.90;;;;;;5115926;27;20125;-89
2022/09/27 02:46:32;;;;;;;5.32;0.55;;;10.00;99.90;;;;;;5115343;27;20043;-89
2022/09/27 02:49:22;;;;;;;3.20;0.77;;;10.00;99.90;;;;;;5098414;27;20050;-90
2022/09/27 02:51:58;;;;;;;2.88;0.50;;;10.10;99.90;;;;;;5115262;27;20084;-89
2022/09/27 02:55:05;;;;;;;4.97;1.05;;;10.10;99.90;;;;;;5114957;27;20088;-88
2022/09/27 02:57:41;;;;;;;2.90;0.55;;;10.10;99.90;;;;;;5115482;27;20046;-88
2022/09/27 03:00:16;;;;;;;3.80;0.65;;;10.10;99.90;;;;;;5098243;27;20484;-89
2022/09/27 03:03:03;;;;;;;5.43;0.70;;;10.10;99.90;;;;;;5115034;27;20113;-89
2022/09/27 03:05:41;;;;;;;5.93;0.75;;;10.10;99.90;;;;;;5098465;27;20056;-89
2022/09/27 03:08:08;;;;;;;4.43;0.63;;;10.10;99.90;;;;;;5115083;27;20644;-89
2022/09/27 03:10:34;;;;;;;5.13;0.73;;;10.10;99.90;;;;;;5115597;27;20043;-89
2022/09/27 03:12:59;;;;;;;9.63;0.90;;;10.10;99.90;;;;;;5098006;27;20045;-89
2022/09/27 03:15:25;;;;;;;4.72;0.68;;;10.10;99.90;;;;;;5114756;27;20055;-89
2022/09/27 03:17:50;;;;;;;1.92;0.50;;;10.10;99.90;;;;;;5098184;27;20045;-89
2022/09/27 03:20:16;;;;;;;5.38;0.90;;;10.10;99.90;;;;;;5115089;27;20117;-89
2022/09/27 03:22:42;;;;;;;4.07;0.75;;;10.00;99.90;;;;;;5114328;27;20043;-89
2022/09/27 03:25:08;;;;;;;4.57;0.60;;;10.00;99.90;;;;;;5115454;27;20067;-89
2022/09/27 03:27:34;;;;;;;5.75;0.75;;;10.00;99.90;;;;;;5114580;27;20034;-89
2022/09/27 03:29:59;;;;;;;5.25;0.75;;;10.00;99.90;;;;;;5114583;27;20043;-89
2022/09/27 03:32:25;;;;;;;5.10;0.75;;;10.00;99.90;;;;;;5115093;27;20088;-89
2022/09/27 03:34:53;;;;;;;2.42;0.70;;;10.00;99.90;;;;;;5115029;27;20407;-89
2022/09/27 03:37:20;;;;;;;1.85;0.60;;;10.00;99.90;;;;;;5114529;27;20043;-89
2022/09/27 03:39:46;;;;;;;3.72;0.68;;;10.00;99.90;;;;;;5098187;27;20407;-89
2022/09/27 03:42:12;;;;;;;3.30;0.60;;;9.90;99.90;;;;;;5097054;27;20629;-89
2022/09/27 03:44:37;;;;;;;2.67;0.63;;;9.90;99.90;;;;;;5114865;27;20047;-89
2022/09/27 03:47:03;;;;;;;4.57;0.68;;;9.80;99.90;;;;;;5114573;27;20515;-88
2022/09/27 03:49:28;;;;;;;2.88;0.85;;;9.80;99.90;;;;;;5097916;27;20086;-89
2022/09/27 03:51:54;;;;;;;1.67;0.40;;;9.80;99.90;;;;;;5097216;27;20484;-89
2022/09/27 03:54:19;;;;;;;5.60;0.60;;;9.70;99.90;;;;;;5114770;27;20042;-89
2022/09/27 03:56:45;;;;;;;4.75;0.70;;;9.70;99.90;;;;;;5114473;27;20043;-88
2022/09/27 03:59:11;;;;;;;1.38;0.30;;;9.70;99.90;;;;;;5114298;27;20042;-88
2022/09/27 04:01:37;;;;;;;2.08;0.50;;;9.60;99.90;;;;;;5112644;27;20039;-89
2022/09/27 04:04:03;;;;;;;3.13;0.55;;;9.60;99.90;;;;;;5114698;27;20117;-89
2022/09/27 04:06:29;;;;;;;5.05;0.70;;;9.60;99.90;;;;;;5114452;27;20519;-89
2022/09/27 04:08:55;;;;;;;1.65;0.40;;;9.60;99.90;;;;;;5096998;28;20039;-89
2022/09/27 04:11:22;;;;;;;1.95;0.45;;;9.60;99.90;;;;;;5097136;27;20112;-89
2022/09/27 04:13:49;;;;;;;4.68;0.50;;;9.50;99.90;;;;;;5114314;28;20122;-89
2022/09/27 04:16:15;;;;;;;5.50;1.00;;;9.50;99.90;;;;;;5114269;28;20084;-89
2022/09/27 04:18:41;;;;;;;3.10;0.43;;;9.50;99.90;;;;;;5097121;28;20476;-88
2022/09/27 04:21:07;;;;;;;2.90;0.50;;;9.50;99.90;;;;;;5114172;28;20504;-88
2022/09/27 04:23:32;;;;;;;4.22;0.77;;;9.40;99.90;;;;;;5096961;28;20057;-88
2022/09/27 04:25:58;;;;;;;0.80;0.45;;;9.40;99.90;;;;;;5114266;28;20039;-89
2022/09/27 04:28:24;;;;;;;5.50;0.88;;;9.40;99.90;;;;;;5114380;28;20041;-89
2022/09/27 04:30:49;;;;;;;3.42;0.73;;;9.40;99.90;;;;;;5113715;28;20507;-91
2022/09/27 04:33:15;;;;;;;3.80;0.85;;;9.40;99.90;;;;;;5113825;28;20073;-91
2022/09/27 04:38:26;;;;;;;3.97;0.60;;;9.40;99.90;;;;;;5113430;28;20051;-89
2022/09/27 04:40:51;;;;;;;4.50;0.65;;;9.30;99.90;;;;;;5114302;28;20046;-88
2022/09/27 04:43:17;;;;;;;0.98;0.32;;;9.30;99.90;;;;;;5113948;28;20039;-89
2022/09/27 04:45:43;;;;;;;3.58;0.50;;;9.30;99.90;;;;;;5113639;28;20039;-89
2022/09/27 04:48:09;;;;;;;1.70;0.60;;;9.30;99.90;;;;;;5114358;28;20054;-89
2022/09/27 04:50:35;;;;;;;0.90;0.47;;;9.30;99.90;;;;;;5114178;28;20039;-88
2022/09/27 04:53:00;;;;;;;1.83;0.50;;;9.30;99.90;;;;;;5096172;28;20407;-89
2022/09/27 04:55:26;;;;;;;2.47;0.70;;;9.20;99.90;;;;;;5097010;28;20088;-89
2022/09/27 04:57:52;;;;;;;4.75;0.68;;;9.20;99.90;;;;;;5114106;28;20031;-89
2022/09/27 05:00:18;;;;;;;2.80;1.08;;;9.20;99.90;;;;;;5096474;28;20135;-89
2022/09/27 05:02:44;;;;;;;0.65;0.45;;;9.20;99.90;;;;;;5113469;28;20074;-88
2022/09/27 05:05:10;;;;;;;2.17;0.50;;;9.20;99.90;;;;;;5113780;28;20047;-88
2022/09/27 05:07:38;;;;;;;2.75;0.60;;;9.20;99.90;;;;;;5113236;28;20066;-89
2022/09/27 05:10:04;;;;;;;2.30;0.52;;;9.10;99.90;;;;;;5093952;28;20104;-88
2022/09/27 05:12:30;;;;;;;3.55;0.77;;;9.10;99.90;;;;;;5097748;27;20074;-88
2022/09/27 05:14:55;;;;;;;4.40;0.75;;;9.20;99.90;;;;;;5116380;27;20074;-89
2022/09/27 05:17:22;;;;;;;3.58;0.47;;;9.20;99.90;;;;;;5116771;27;20041;-88
2022/09/27 05:19:48;;;;;;;2.28;0.50;;;9.20;99.90;;;;;;5116645;27;20043;-89
2022/09/27 05:22:14;;;;;;;4.43;0.88;;;9.20;99.90;;;;;;5116161;27;20499;-90
2022/09/27 05:24:39;;;;;;;2.28;0.50;;;9.20;99.90;;;;;;5099812;27;20039;-90
2022/09/27 05:27:09;;;;;;;2.50;0.50;;;9.20;99.90;;;;;;5116710;27;20046;-90
2022/09/27 05:29:35;;;;;;;2.53;0.55;;;9.20;99.90;;;;;;5116245;27;20144;-90
2022/09/27 05:32:02;;;;;;;3.78;0.50;;;9.20;99.90;;;;;;5099056;27;20035;-90
2022/09/27 05:34:27;;;;;;;3.88;0.70;;;9.20;99.90;;;;;;5117012;27;20411;-90
2022/09/27 05:36:53;;;;;;;4.50;0.63;;;9.20;99.90;;;;;;5115836;27;20520;-90
2022/09/27 05:39:18;;;;;;;3.30;0.57;;;9.10;99.90;;;;;;5100226;27;20126;-90
2022/09/27 05:41:45;;;;;;;5.40;0.80;;;9.10;99.90;;;;;;5116549;27;20843;-90
2022/09/27 05:44:12;;;;;;;5.15;1.02;;;9.00;99.90;;;;;;5116496;27;20039;-90
2022/09/27 05:46:38;;;;;;;3.78;0.90;;;9.00;99.90;;;;;;5116455;27;20087;-90
2022/09/27 05:49:04;;;;;;;2.60;0.52;;;8.90;99.90;;;;;;5116592;27;20138;-90
2022/09/27 05:51:30;;;;;;;5.43;0.70;;;8.90;99.90;;;;;;5115750;27;20400;-90
2022/09/27 05:53:56;;;;;;;7.05;1.08;;;8.90;99.90;;;;;;5116287;27;20476;-90
2022/09/27 05:56:21;;;;;;;2.30;0.60;;;8.90;99.90;;;;;;5099069;27;20042;-90
2022/09/27 05:58:47;;;;;;;2.33;0.60;;;8.80;99.90;;;;;;5115941;27;20039;-90
2022/09/27 06:01:13;;;;;;;2.70;0.60;;;8.80;99.90;;;;;;5115996;27;20043;-89
2022/09/27 06:03:39;;;;;;;3.88;0.73;;;8.70;99.90;;;;;;5116185;27;20046;-90
2022/09/27 06:06:06;;;;;;;3.80;0.70;;;8.70;99.90;;;;;;5115599;27;20119;-90
2022/09/27 06:08:33;;;;;;;3.08;0.80;;;8.70;99.90;;;;;;5116156;27;20488;-90
2022/09/27 06:11:08;;;;;;;8.75;1.05;;;8.80;99.90;;;;;;5116025;27;20446;-90
2022/09/27 06:13:35;;;;;;;2.45;0.60;;;8.80;99.90;;;;;;5098872;27;20058;-91
2022/09/27 06:16:01;;;;;;;3.10;0.60;;;8.80;99.90;;;;;;5115772;27;20031;-90
2022/09/27 06:18:27;;;;;;;1.65;0.60;;;8.80;99.90;;;;;;5115320;27;20039;-90
2022/09/27 06:20:52;;;;;;;3.50;0.77;;;8.80;99.90;;;;;;5115249;27;20035;-90
2022/09/27 06:23:21;;;;;;;4.63;0.73;;;8.80;99.90;;;;;;5114831;27;20063;-90
2022/09/27 06:25:47;;;;;;;2.85;0.65;;;8.80;99.90;;;;;;5115761;27;20109;-91
2022/09/27 06:28:14;;;;;;;4.53;1.35;;;8.80;99.90;;;;;;5115379;27;20560;-90
2022/09/27 06:30:42;;;;;;;3.03;1.50;;;8.80;99.90;;;;;;5115881;27;20039;-90
2022/09/27 06:33:10;;;;;;;5.72;0.80;;;8.80;99.90;;;;;;5115249;27;20036;-91
2022/09/27 06:35:36;;;;;;;5.88;1.38;;;8.80;99.90;;;;;;5114824;27;20047;-90
2022/09/27 06:38:03;;;;;;;6.88;1.48;;;8.90;99.90;;;;;;5098422;27;20035;-90
2022/09/27 06:40:29;;;;;;;2.45;0.65;;;8.90;99.90;;;;;;5115435;27;20117;-90
2022/09/27 06:43:02;;;;;;;5.57;0.73;;;8.90;99.90;;;;;;5114828;27;20172;-90
2022/09/27 06:45:27;;;;;;;6.85;0.80;;;9.00;99.90;;;;;;5114830;27;20080;-90
2022/09/27 06:47:54;;;;;;;5.47;0.70;;;9.00;99.90;;;;;;5097995;27;20122;-91
2022/09/27 06:50:19;;;;;;;5.10;1.02;;;9.00;99.90;;;;;;5115019;27;20043;-90
2022/09/27 06:52:49;;;;;;;5.40;0.93;;;9.10;99.90;;;;;;5097773;27;20049;-90
2022/09/27 06:55:15;;;;;;;3.97;0.80;;;9.10;99.90;;;;;;5115139;27;20532;-90
2022/09/27 07:00:25;;;;;;;3.78;0.90;;;9.10;99.90;;;;;;5135304;27;20099;-90
2022/09/27 07:02:52;;;;;;;3.20;0.70;;;9.20;99.90;;;;;;5135363;27;20066;-90
2022/09/27 07:05:19;;;;;;;4.35;0.93;;;9.20;99.90;;;;;;5135114;27;20039;-90
2022/09/27 07:07:46;;;;;;;6.82;1.33;;;9.30;99.90;;;;;;5118116;27;20094;-90
2022/09/27 07:10:12;;;;;;;6.65;1.02;;;9.30;99.90;;;;;;5118344;27;20143;-90
2022/09/27 07:12:38;;;;;;;7.63;1.05;;;9.40;99.90;;;;;;5134470;27;20433;-91
2022/09/27 07:15:04;;;;;;;6.00;0.98;;;9.50;99.90;;;;;;5134482;27;20183;-90
2022/09/27 07:17:30;;;;;;;3.58;0.80;;;9.50;99.90;;;;;;5135251;27;20408;-90
2022/09/27 07:19:56;;;;;;;5.60;0.90;;;9.50;99.90;;;;;;5136416;27;20600;-90
2022/09/27 07:22:22;;;;;;;9.00;1.65;;;9.50;99.90;;;;;;5134802;27;20121;-90
2022/09/27 07:24:47;;;;;;;2.75;0.95;;;9.60;99.90;;;;;;5135310;27;20544;-90
2022/09/27 07:27:14;;;;;;;7.85;1.15;;;9.60;99.90;;;;;;5118494;27;20038;-90
2022/09/27 07:29:40;;;;;;;3.40;1.10;;;9.70;99.90;;;;;;5135353;27;20487;-90
2022/09/27 07:32:05;;;;;;;3.83;0.90;;;9.70;99.90;;;;;;5135471;27;20035;-90
2022/09/27 07:34:32;;;;;;;3.65;0.82;;;9.70;99.90;;;;;;5135149;27;20049;-90
2022/09/27 07:36:59;;;;;;;5.78;1.10;;;9.80;99.90;;;;;;5118002;27;20039;-90
2022/09/27 07:39:25;;;;;;;4.32;0.98;;;9.80;99.90;;;;;;5118192;27;20070;-91
2022/09/27 07:41:51;;;;;;;5.15;1.27;;;9.90;99.90;;;;;;5134770;27;20038;-91
2022/09/27 07:44:17;;;;;;;6.57;1.13;;;9.90;99.90;;;;;;5135023;27;20046;-90
2022/09/27 07:46:42;;;;;;;3.20;0.82;;;10.00;99.90;;;;;;5135234;27;20053;-90
2022/09/27 07:49:08;;;;;;;5.50;1.20;;;10.10;99.90;;;;;;5117642;27;20049;-91
2022/09/27 07:51:33;;;;;;;4.28;1.00;;;10.30;99.90;;;;;;5119436;27;20507;-91
2022/09/27 07:54:02;;;;;;;5.68;1.05;;;10.40;99.90;;;;;;5097164;27;20074;-91
2022/09/27 07:56:27;;;;;;;3.40;0.80;;;10.40;99.90;;;;;;5117485;27;20037;-91
2022/09/27 07:58:53;;;;;;;3.28;0.75;;;10.50;99.90;;;;;;5117360;27;20392;-90
2022/09/27 08:01:19;;;;;;;3.70;0.63;;;10.50;99.90;;;;;;5113672;27;20035;-90
2022/09/27 08:03:45;;;;;;;5.60;0.73;;;10.50;99.90;;;;;;5114088;27;20373;-90
2022/09/27 08:06:11;;;;;;;6.30;0.90;;;10.50;99.90;;;;;;5114059;27;20522;-90
2022/09/27 08:08:37;;;;;;;2.90;0.70;;;10.50;99.90;;;;;;5113553;27;20118;-91
2022/09/27 08:11:14;;;;;;;4.63;0.80;;;10.50;99.90;;;;;;5113145;27;20159;-91
2022/09/27 08:13:41;;;;;;;5.28;1.05;;;10.50;99.90;;;;;;5096196;28;20031;-90
2022/09/27 08:16:07;;;;;;;3.83;0.55;;;10.50;99.90;;;;;;5130961;27;20062;-91
2022/09/27 08:18:33;;;;;;;3.75;0.70;;;10.60;99.90;;;;;;5113622;28;20489;-91
2022/09/27 08:20:59;;;;;;;2.40;0.70;;;10.70;99.90;;;;;;5113452;28;20099;-90
2022/09/27 08:23:25;;;;;;;2.28;0.50;;;10.80;99.90;;;;;;5113461;28;20032;-91
2022/09/27 08:25:56;;;;;;;4.22;0.70;;;10.80;99.90;;;;;;5113742;28;20043;-91
2022/09/27 08:28:22;;;;;;;1.38;0.60;;;10.80;99.90;;;;;;5113352;28;20088;-91
2022/09/27 08:30:49;;;;;;;5.32;1.20;;;10.80;99.90;;;;;;5113807;28;20043;-90
2022/09/27 08:33:15;;;;;;;3.88;0.70;;;10.80;99.90;;;;;;5112998;28;20122;-90
2022/09/27 08:35:41;;;;;;;1.27;0.45;;;10.80;99.90;;;;;;5113296;28;20441;-91
2022/09/27 08:38:08;;;;;;;3.40;0.55;;;10.90;99.90;;;;;;5097908;27;20098;-90
2022/09/27 08:40:43;;;;;;;3.45;1.00;;;11.00;99.90;;;;;;5122707;27;20069;-90
2022/09/27 08:43:21;;;;;;;4.30;0.80;;;11.20;99.90;;;;;;5123739;27;20081;-91
2022/09/27 08:46:15;;;;;;;1.88;0.57;;;11.40;99.90;;;;;;5106368;27;20054;-90
2022/09/27 08:48:42;;;;;;;2.75;0.73;;;11.50;99.90;;;;;;5126308;27;20042;-91
2022/09/27 08:51:12;;;;;;;6.07;1.20;;;11.60;99.90;;;;;;5126750;27;20035;-91
2022/09/27 08:53:46;;;;;;;8.15;1.55;;;11.70;99.90;;;;;;5128028;27;20035;-91
2022/09/27 08:56:13;;;;;;;3.25;0.70;;;11.80;99.90;;;;;;5110836;27;20031;-91
2022/09/27 08:59:13;;;;;;;1.95;0.63;;;11.90;99.90;;;;;;5125785;27;20126;-91
2022/09/27 09:01:40;;;;;;;3.60;0.47;;;12.10;99.90;;;;;;5104250;27;20047;-90
2022/09/27 09:04:07;;;;;;;5.20;1.10;;;12.20;99.90;;;;;;5126421;27;20043;-91
2022/09/27 09:07:00;;;;;;;3.88;0.50;;;12.20;99.90;;;;;;5126475;27;20064;-90
2022/09/27 09:09:40;;;;;;;1.05;0.20;;;12.20;99.90;;;;;;5126697;27;20042;-90
2022/09/27 09:15:52;;;;;;;2.55;0.30;;;11.80;99.90;;;;;;5127176;27;20229;-91
2022/09/27 09:18:46;;;;;;;1.67;0.20;;;11.60;99.90;;;;;;5114137;27;20038;-91
2022/09/27 09:21:28;;;;;;;;;;;11.40;99.90;;;;;;5120317;27;20041;-90
2022/09/27 09:24:03;;;;;;;1.50;0.30;;;11.20;99.90;;;;;;5120255;27;20371;-88
2022/09/27 09:26:41;;;;;;;0.52;0.10;;;11.00;99.90;;;;;;5136921;27;20057;-89
2022/09/27 09:29:26;;;;;;;4.15;0.40;;;10.90;99.90;;;;;;5137860;27;20403;-88
2022/09/27 09:32:14;;;;;;;0.93;0.20;;;10.90;99.90;;;;;;5137114;27;20038;-89
2022/09/27 09:34:45;;;;;;;0.38;0.30;;;10.90;99.90;;;;;;5125622;27;20523;-89
2022/09/27 09:37:28;;;;;;;2.80;0.45;;;11.00;99.90;;;;;;5116523;27;20039;-89
2022/09/27 09:40:15;;;;;;;3.72;0.73;;;11.00;99.90;;;;;;5116267;27;20488;-89
2022/09/27 09:43:04;;;;;;;2.95;0.45;;;11.20;99.90;;;;;;5115872;27;20464;-89
2022/09/27 09:45:33;;;;;;;3.08;0.50;;;11.30;99.90;;;;;;5116777;27;20043;-89
2022/09/27 09:48:23;;;;;;;3.08;0.52;;;11.50;99.90;;;;;;5116366;27;20082;-88
2022/09/27 09:50:53;;;;;;;2.70;0.63;;;11.70;99.90;;;;;;5128776;27;20095;-89
2022/09/27 09:53:38;;;;;;;3.78;0.40;;;11.90;99.90;;;;;;5119241;27;20036;-89
2022/09/27 09:56:25;;;;;;;2.90;0.50;;;12.00;99.90;;;;;;5136725;27;20039;-89
2022/09/27 09:58:54;;;;;;;1.58;0.50;;;12.00;99.90;;;;;;5135300;27;20035;-89
2022/09/27 10:01:23;;;;;;;2.75;0.65;;;12.00;99.90;;;;;;5136854;27;20437;-89
2022/09/27 10:03:49;;;;;;;3.17;0.57;;;12.00;99.90;;;;;;5136635;27;20074;-89
2022/09/27 10:06:16;;;;;;;1.73;0.30;;;11.90;99.90;;;;;;5136464;27;20073;-89
2022/09/27 10:08:43;;;;;;;1.38;0.20;;;11.80;99.90;;;;;;5136778;27;20031;-88
2022/09/27 10:11:21;;;;;;;2.75;0.40;;;11.70;99.90;;;;;;5135883;27;20061;-89
2022/09/27 10:13:47;;;;;;;0.63;0.20;;;11.60;99.90;;;;;;5135984;27;20094;-89
2022/09/27 10:16:15;;;;;;;2.53;0.30;;;11.60;99.90;;;;;;5136628;27;20039;-89
2022/09/27 10:18:41;;;;;;;2.70;0.82;;;11.70;99.90;;;;;;5118846;27;20035;-89
2022/09/27 10:21:15;;;;;;;0.55;0.20;;;11.70;99.90;;;;;;5119189;27;20035;-89
2022/09/27 10:24:03;;;;;;;0.75;0.10;;;11.80;99.90;;;;;;5136317;27;20512;-89
2022/09/27 10:26:29;;;;;;;0.10;0.10;;;11.90;99.90;;;;;;5135806;27;20078;-89
2022/09/27 10:28:55;;;;;;;1.23;0.20;;;11.90;99.90;;;;;;5136247;27;20058;-89
2022/09/27 10:31:21;;;;;;;0.98;0.20;;;12.00;99.90;;;;;;5118861;27;20049;-89
2022/09/27 10:33:54;;;;;;;0.40;0.10;;;12.10;99.90;;;;;;5135318;27;20038;-89
2022/09/27 10:36:29;;;;;;;0.90;0.47;;;12.20;99.90;;;;;;5136155;27;20046;-88
2022/09/27 10:38:57;;;;;;;2.35;0.50;;;12.30;99.90;;;;;;5135658;27;20030;-89
2022/09/27 10:41:31;;;;;;;0.95;0.20;;;12.40;99.90;;;;;;5134678;27;20717;-89
2022/09/27 10:43:57;;;;;;;1.20;0.20;;;12.40;99.90;;;;;;5119073;27;20399;-89
2022/09/27 10:46:33;;;;;;;2.60;0.60;;;12.50;99.90;;;;;;5118167;27;20492;-90
2022/09/27 10:49:09;;;;;;;0.63;0.38;;;12.50;99.90;;;;;;5135644;27;20112;-88
2022/09/27 10:51:35;;;;;;;3.47;0.60;;;12.60;99.90;;;;;;5118511;27;20050;-88
2022/09/27 10:54:01;;;;;;;2.10;0.35;;;12.70;99.90;;;;;;5135134;27;20385;-89
2022/09/27 10:56:29;;;;;;;2.10;0.30;;;12.70;99.90;;;;;;5118329;27;20045;-89
2022/09/27 10:58:58;;;;;;;3.03;0.70;;;12.60;99.90;;;;;;5135554;27;20492;-89
2022/09/27 11:01:25;;;;;;;5.63;0.77;;;12.60;99.90;;;;;;5118363;27;20046;-88
2022/09/27 11:03:55;;;;;;;0.90;0.40;;;12.60;99.90;;;;;;5135087;27;20038;-89
2022/09/27 11:06:26;;;;;;;1.58;0.63;;;12.60;99.90;;;;;;5135580;27;20038;-89
2022/09/27 11:08:54;;;;;;;2.45;0.50;;;12.60;99.90;;;;;;5135390;27;20030;-89
2022/09/27 11:11:25;;;;;;;2.33;0.52;;;12.70;99.90;;;;;;5117103;27;20414;-88
2022/09/27 11:14:14;;;;;;;1.48;0.60;;;12.80;99.90;;;;;;5135024;27;20076;-89
2022/09/27 11:17:02;;;;;;;1.70;0.60;;;12.80;99.90;;;;;;5135138;27;20042;-89
2022/09/27 11:19:38;;;;;;;2.65;0.57;;;12.90;99.90;;;;;;5133828;27;20062;-89
2022/09/27 11:22:29;;;;;;;4.57;0.70;;;13.00;99.90;;;;;;5116600;27;20058;-89
2022/09/27 11:25:13;;;;;;;5.50;0.90;;;13.00;99.90;;;;;;5135311;27;20635;-89
2022/09/27 11:27:57;;;;;;;2.47;0.52;;;13.20;99.90;;;;;;5123394;27;20047;-89
2022/09/27 11:30:23;;;;;;;2.60;0.60;;;13.20;99.90;;;;;;5106586;27;20039;-89
2022/09/27 11:32:51;;;;;;;3.83;0.80;;;13.30;99.90;;;;;;5134510;27;20038;-89
2022/09/27 11:35:46;;;;;;;2.28;0.50;;;13.40;99.90;;;;;;5134217;27;20043;-89
2022/09/27 11:38:48;;;;;;;1.42;0.25;;;13.20;99.90;;;;;;5112622;27;20034;-89
2022/09/27 11:41:48;;;;;;;2.88;0.73;;;12.70;99.90;;;;;;5096642;27;20118;-88
2022/09/27 11:44:36;;;;;;;1.08;0.20;;;12.40;99.90;;;;;;5114689;27;20043;-89
2022/09/27 11:47:17;;;;;;;0.60;0.20;;;12.10;99.90;;;;;;5114511;27;20050;-88
2022/09/27 11:50:06;;;;;;;2.63;0.73;;;11.90;99.90;;;;;;5113723;27;20043;-89
2022/09/27 11:53:09;;;;;;;1.92;0.30;;;12.00;99.90;;;;;;5096590;27;20116;-89
2022/09/27 11:55:45;;;;;;;;;;;11.90;99.90;;;;;;5113905;27;20435;-89
2022/09/27 11:58:31;;;;;;;1.25;0.15;;;12.00;99.90;;;;;;5113474;27;19923;-89
2022/09/27 12:01:11;;;;;;;1.85;0.38;;;12.10;99.90;;;;;;5114229;27;20039;-88
2022/09/27 12:03:59;;;;;;;0.68;0.32;;;12.20;99.90;;;;;;5096974;27;20449;-89
2022/09/27 12:07:03;;;;;;;1.70;0.35;;;12.30;99.90;;;;;;5096776;27;20047;-88
2022/09/27 12:09:42;;;;;;;0.63;0.30;;;12.40;99.90;;;;;;5113872;28;20084;-88
2022/09/27 12:12:19;;;;;;;4.20;0.65;;;12.40;99.90;;;;;;5096702;27;20490;-88
2022/09/27 12:14:54;;;;;;;1.00;0.30;;;12.50;99.90;;;;;;5113363;28;20519;-89
2022/09/27 12:17:26;;;;;;;0.98;0.32;;;12.50;99.90;;;;;;5113573;28;20075;-88
2022/09/27 12:19:55;;;;;;;1.67;0.20;;;12.50;99.90;;;;;;5096998;28;20035;-89
2022/09/27 12:22:46;;;;;;;0.63;0.22;;;12.60;99.90;;;;;;5112550;28;20396;-89
2022/09/27 12:25:17;;;;;;;0.77;0.20;;;12.60;99.90;;;;;;5113272;28;20065;-89
2022/09/27 12:27:58;;;;;;;1.02;0.30;;;12.60;99.90;;;;;;5096556;28;20072;-89
2022/09/27 12:30:23;;;;;;;0.98;0.20;;;12.70;99.90;;;;;;5113644;28;20039;-89
2022/09/27 12:33:15;;;;;;;0.43;0.10;;;12.60;99.90;;;;;;5112198;28;20045;-89
2022/09/27 12:35:49;;;;;;;0.40;0.08;;;12.70;99.90;;;;;;5120321;27;20130;-88
2022/09/27 12:38:20;;;;;;;2.63;0.50;;;12.80;99.90;;;;;;5123510;27;20038;-90
2022/09/27 12:40:51;;;;;;;0.38;0.20;;;13.00;99.90;;;;;;5101109;27;20039;-88
2022/09/27 12:43:22;;;;;;;2.88;0.35;;;13.00;99.90;;;;;;5106447;27;20110;-89
2022/09/27 12:46:13;;;;;;;0.63;0.20;;;13.10;99.90;;;;;;5120656;27;20066;-89
2022/09/27 12:49:03;;;;;;;2.58;0.40;;;13.20;99.90;;;;;;5126557;27;20399;-89
2022/09/27 12:51:53;;;;;;;3.85;0.80;;;13.40;99.90;;;;;;5101238;27;20043;-89
2022/09/27 12:54:43;;;;;;;3.33;0.40;;;13.60;99.90;;;;;;5095076;28;20293;-88
2022/09/27 12:57:21;;;;;;;6.07;1.20;;;13.70;99.90;;;;;;5096501;28;20047;-89
2022/09/27 12:59:58;;;;;;;3.80;0.55;;;13.80;99.90;;;;;;5113155;28;20122;-89
2022/09/27 13:02:49;;;;;;;2.88;0.73;;;13.70;99.90;;;;;;5129491;28;20049;-89
2022/09/27 13:05:35;;;;;;;4.25;0.85;;;13.60;99.90;;;;;;5113169;28;20128;-89
2022/09/27 13:08:19;;;;;;;4.60;0.63;;;13.50;99.90;;;;;;5130516;28;20045;-89
2022/09/27 13:11:07;;;;;;;1.35;0.47;;;13.50;99.90;;;;;;5129907;28;20091;-89
2022/09/27 13:13:33;;;;;;;4.65;0.82;;;13.70;99.90;;;;;;5096360;28;20565;-88
2022/09/27 13:16:00;;;;;;;3.00;0.63;;;14.30;99.90;;;;;;5130279;28;20049;-89
2022/09/27 13:18:35;;;;;;;3.10;0.65;;;14.70;99.90;;;;;;5130298;28;20039;-89
2022/09/27 13:21:03;;;;;;;5.43;0.60;;;14.40;99.90;;;;;;5129612;28;20035;-89
2022/09/27 13:23:30;;;;;;;5.30;0.60;;;14.10;99.90;;;;;;5095332;28;20063;-89
2022/09/27 13:26:03;;;;;;;5.70;0.85;;;13.90;99.90;;;;;;5113033;28;20075;-89